sensor_id;sensor_type;location;lat;lon;timestamp;P1;durP1;ratioP1;P2;durP2;ratioP2
35324;SDS011;35135;47.510;19.036;2023-05-23T00:01:14;4.25;;;3.78;;
35324;SDS011;35135;47.510;19.036;2023-05-23T00:03:41;4.63;;;3.88;;
35324;SDS011;35135;47.510;19.036;2023-05-23T00:06:06;6.25;;;4.05;;
35324;SDS011;35135;47.510;19.036;2023-05-23T00:08:32;4.88;;;3.75;;
35324;SDS011;35135;47.510;19.036;2023-05-23T00:10:58;4.47;;;3.50;;
35324;SDS011;35135;47.510;19.036;2023-05-23T00:13:24;4.40;;;3.63;;
35324;SDS011;35135;47.510;19.036;2023-05-23T00:15:50;4.28;;;3.88;;
35324;SDS011;35135;47.510;19.036;2023-05-23T00:18:16;3.85;;;3.47;;
35324;SDS011;35135;47.510;19.036;2023-05-23T00:20:42;4.95;;;3.78;;
35324;SDS011;35135;47.510;19.036;2023-05-23T00:23:09;6.38;;;4.32;;
35324;SDS011;35135;47.510;19.036;2023-05-23T00:25:36;5.35;;;3.63;;
35324;SDS011;35135;47.510;19.036;2023-05-23T00:28:02;4.68;;;3.88;;
35324;SDS011;35135;47.510;19.036;2023-05-23T00:30:29;5.47;;;3.30;;
35324;SDS011;35135;47.510;19.036;2023-05-23T00:32:56;5.18;;;3.63;;
35324;SDS011;35135;47.510;19.036;2023-05-23T00:35:22;3.65;;;3.28;;
35324;SDS011;35135;47.510;19.036;2023-05-23T00:37:48;5.53;;;4.15;;
35324;SDS011;35135;47.510;19.036;2023-05-23T00:40:16;6.82;;;4.25;;
35324;SDS011;35135;47.510;19.036;2023-05-23T00:42:42;4.07;;;3.58;;
35324;SDS011;35135;47.510;19.036;2023-05-23T00:45:08;5.88;;;3.53;;
35324;SDS011;35135;47.510;19.036;2023-05-23T00:47:36;4.43;;;3.40;;
35324;SDS011;35135;47.510;19.036;2023-05-23T00:50:03;3.42;;;3.03;;
35324;SDS011;35135;47.510;19.036;2023-05-23T00:52:31;4.03;;;3.63;;
35324;SDS011;35135;47.510;19.036;2023-05-23T00:54:57;3.83;;;3.30;;
35324;SDS011;35135;47.510;19.036;2023-05-23T00:57:22;6.22;;;3.75;;
35324;SDS011;35135;47.510;19.036;2023-05-23T00:59:48;4.32;;;3.92;;
35324;SDS011;35135;47.510;19.036;2023-05-23T01:02:15;4.13;;;3.42;;
35324;SDS011;35135;47.510;19.036;2023-05-23T01:04:40;4.35;;;3.35;;
35324;SDS011;35135;47.510;19.036;2023-05-23T01:07:08;3.65;;;3.20;;
35324;SDS011;35135;47.510;19.036;2023-05-23T01:09:35;5.03;;;3.15;;
35324;SDS011;35135;47.510;19.036;2023-05-23T01:12:08;4.47;;;3.58;;
35324;SDS011;35135;47.510;19.036;2023-05-23T01:14:45;4.50;;;3.00;;
35324;SDS011;35135;47.510;19.036;2023-05-23T01:17:16;3.42;;;3.13;;
35324;SDS011;35135;47.510;19.036;2023-05-23T01:19:57;4.90;;;3.38;;
35324;SDS011;35135;47.510;19.036;2023-05-23T01:25:27;4.60;;;3.33;;
35324;SDS011;35135;47.510;19.036;2023-05-23T01:27:54;5.55;;;3.63;;
35324;SDS011;35135;47.510;19.036;2023-05-23T01:30:22;3.50;;;3.10;;
35324;SDS011;35135;47.510;19.036;2023-05-23T01:32:49;4.57;;;3.33;;
35324;SDS011;35135;47.510;19.036;2023-05-23T01:35:21;3.33;;;2.88;;
35324;SDS011;35135;47.510;19.036;2023-05-23T01:37:55;5.35;;;3.30;;
35324;SDS011;35135;47.510;19.036;2023-05-23T01:40:22;4.82;;;3.58;;
35324;SDS011;35135;47.510;19.036;2023-05-23T01:42:49;4.10;;;3.13;;
35324;SDS011;35135;47.510;19.036;2023-05-23T01:45:15;5.10;;;3.40;;
35324;SDS011;35135;47.510;19.036;2023-05-23T01:47:42;3.65;;;3.35;;
35324;SDS011;35135;47.510;19.036;2023-05-23T01:50:08;5.55;;;3.70;;
35324;SDS011;35135;47.510;19.036;2023-05-23T01:52:35;4.63;;;3.50;;
35324;SDS011;35135;47.510;19.036;2023-05-23T01:55:02;4.50;;;3.70;;
35324;SDS011;35135;47.510;19.036;2023-05-23T01:57:34;4.25;;;3.40;;
35324;SDS011;35135;47.510;19.036;2023-05-23T02:00:02;4.28;;;3.50;;
35324;SDS011;35135;47.510;19.036;2023-05-23T02:02:30;5.47;;;3.58;;
35324;SDS011;35135;47.510;19.036;2023-05-23T02:04:57;4.72;;;3.50;;
35324;SDS011;35135;47.510;19.036;2023-05-23T02:07:23;4.50;;;3.67;;
35324;SDS011;35135;47.510;19.036;2023-05-23T02:09:49;4.05;;;3.60;;
35324;SDS011;35135;47.510;19.036;2023-05-23T02:12:14;4.03;;;3.30;;
35324;SDS011;35135;47.510;19.036;2023-05-23T02:14:40;4.80;;;3.40;;
35324;SDS011;35135;47.510;19.036;2023-05-23T02:17:06;4.20;;;3.30;;
35324;SDS011;35135;47.510;19.036;2023-05-23T02:19:34;5.57;;;3.33;;
35324;SDS011;35135;47.510;19.036;2023-05-23T02:22:00;5.97;;;3.97;;
35324;SDS011;35135;47.510;19.036;2023-05-23T02:24:26;4.25;;;3.70;;
35324;SDS011;35135;47.510;19.036;2023-05-23T02:26:52;4.63;;;3.72;;
35324;SDS011;35135;47.510;19.036;2023-05-23T02:29:17;6.47;;;3.67;;
35324;SDS011;35135;47.510;19.036;2023-05-23T02:31:43;5.18;;;3.83;;
35324;SDS011;35135;47.510;19.036;2023-05-23T02:34:09;5.25;;;3.60;;
35324;SDS011;35135;47.510;19.036;2023-05-23T02:36:34;4.75;;;4.22;;
35324;SDS011;35135;47.510;19.036;2023-05-23T02:39:01;4.25;;;3.78;;
35324;SDS011;35135;47.510;19.036;2023-05-23T02:41:27;5.72;;;3.72;;
35324;SDS011;35135;47.510;19.036;2023-05-23T02:43:53;5.80;;;4.10;;
35324;SDS011;35135;47.510;19.036;2023-05-23T02:46:19;7.50;;;4.28;;
35324;SDS011;35135;47.510;19.036;2023-05-23T02:48:45;5.38;;;3.75;;
35324;SDS011;35135;47.510;19.036;2023-05-23T02:51:11;4.15;;;3.75;;
35324;SDS011;35135;47.510;19.036;2023-05-23T02:53:37;4.50;;;4.00;;
35324;SDS011;35135;47.510;19.036;2023-05-23T02:56:03;4.85;;;4.05;;
35324;SDS011;35135;47.510;19.036;2023-05-23T02:58:29;4.72;;;3.70;;
35324;SDS011;35135;47.510;19.036;2023-05-23T03:00:56;4.43;;;3.47;;
35324;SDS011;35135;47.510;19.036;2023-05-23T03:03:22;3.45;;;3.15;;
35324;SDS011;35135;47.510;19.036;2023-05-23T03:05:47;4.50;;;3.67;;
35324;SDS011;35135;47.510;19.036;2023-05-23T03:08:13;4.22;;;3.28;;
35324;SDS011;35135;47.510;19.036;2023-05-23T03:10:38;5.00;;;4.05;;
35324;SDS011;35135;47.510;19.036;2023-05-23T03:13:04;5.28;;;3.80;;
35324;SDS011;35135;47.510;19.036;2023-05-23T03:15:30;4.30;;;3.80;;
35324;SDS011;35135;47.510;19.036;2023-05-23T03:17:55;6.20;;;3.60;;
35324;SDS011;35135;47.510;19.036;2023-05-23T03:20:21;4.57;;;3.55;;
35324;SDS011;35135;47.510;19.036;2023-05-23T03:22:47;6.03;;;4.20;;
35324;SDS011;35135;47.510;19.036;2023-05-23T03:25:13;4.30;;;3.45;;
35324;SDS011;35135;47.510;19.036;2023-05-23T03:27:40;4.18;;;3.55;;
35324;SDS011;35135;47.510;19.036;2023-05-23T03:30:06;5.43;;;3.55;;
35324;SDS011;35135;47.510;19.036;2023-05-23T03:32:32;5.22;;;3.72;;
35324;SDS011;35135;47.510;19.036;2023-05-23T03:34:57;5.15;;;3.70;;
35324;SDS011;35135;47.510;19.036;2023-05-23T03:37:23;3.38;;;3.08;;
35324;SDS011;35135;47.510;19.036;2023-05-23T03:39:49;6.03;;;3.63;;
35324;SDS011;35135;47.510;19.036;2023-05-23T03:42:16;4.30;;;3.85;;
35324;SDS011;35135;47.510;19.036;2023-05-23T03:44:42;4.70;;;3.67;;
35324;SDS011;35135;47.510;19.036;2023-05-23T03:47:08;5.43;;;4.00;;
35324;SDS011;35135;47.510;19.036;2023-05-23T03:49:33;4.03;;;3.63;;
35324;SDS011;35135;47.510;19.036;2023-05-23T03:51:59;5.43;;;4.47;;
35324;SDS011;35135;47.510;19.036;2023-05-23T03:54:25;5.13;;;3.70;;
35324;SDS011;35135;47.510;19.036;2023-05-23T03:56:50;4.90;;;4.10;;
35324;SDS011;35135;47.510;19.036;2023-05-23T03:59:16;6.60;;;4.13;;
35324;SDS011;35135;47.510;19.036;2023-05-23T04:01:42;4.22;;;3.20;;
35324;SDS011;35135;47.510;19.036;2023-05-23T04:04:08;5.30;;;4.03;;
35324;SDS011;35135;47.510;19.036;2023-05-23T04:06:33;5.90;;;3.85;;
35324;SDS011;35135;47.510;19.036;2023-05-23T04:08:59;5.03;;;4.30;;
35324;SDS011;35135;47.510;19.036;2023-05-23T04:11:26;4.38;;;3.97;;
35324;SDS011;35135;47.510;19.036;2023-05-23T04:13:52;4.68;;;3.30;;
35324;SDS011;35135;47.510;19.036;2023-05-23T04:16:18;4.88;;;3.60;;
35324;SDS011;35135;47.510;19.036;2023-05-23T04:18:44;5.70;;;3.90;;
35324;SDS011;35135;47.510;19.036;2023-05-23T04:21:11;4.85;;;3.95;;
35324;SDS011;35135;47.510;19.036;2023-05-23T04:23:37;4.70;;;4.15;;
35324;SDS011;35135;47.510;19.036;2023-05-23T04:26:02;5.90;;;4.03;;
35324;SDS011;35135;47.510;19.036;2023-05-23T04:28:29;4.50;;;3.90;;
35324;SDS011;35135;47.510;19.036;2023-05-23T04:30:56;5.40;;;4.15;;
35324;SDS011;35135;47.510;19.036;2023-05-23T04:33:22;4.85;;;3.78;;
35324;SDS011;35135;47.510;19.036;2023-05-23T04:35:48;6.10;;;4.13;;
35324;SDS011;35135;47.510;19.036;2023-05-23T04:38:15;4.43;;;3.80;;
35324;SDS011;35135;47.510;19.036;2023-05-23T04:40:41;4.13;;;3.72;;
35324;SDS011;35135;47.510;19.036;2023-05-23T04:43:07;4.10;;;3.80;;
35324;SDS011;35135;47.510;19.036;2023-05-23T04:45:34;4.82;;;3.78;;
35324;SDS011;35135;47.510;19.036;2023-05-23T04:48:01;4.78;;;3.80;;
35324;SDS011;35135;47.510;19.036;2023-05-23T04:50:27;5.00;;;4.22;;
35324;SDS011;35135;47.510;19.036;2023-05-23T04:52:56;5.22;;;4.10;;
35324;SDS011;35135;47.510;19.036;2023-05-23T04:55:22;9.13;;;4.88;;
35324;SDS011;35135;47.510;19.036;2023-05-23T04:57:48;4.90;;;4.18;;
35324;SDS011;35135;47.510;19.036;2023-05-23T05:00:13;5.50;;;3.90;;
35324;SDS011;35135;47.510;19.036;2023-05-23T05:02:40;6.60;;;3.83;;
35324;SDS011;35135;47.510;19.036;2023-05-23T05:05:06;5.15;;;4.20;;
35324;SDS011;35135;47.510;19.036;2023-05-23T05:07:31;6.05;;;4.18;;
35324;SDS011;35135;47.510;19.036;2023-05-23T05:09:59;5.18;;;4.65;;
35324;SDS011;35135;47.510;19.036;2023-05-23T05:12:25;8.60;;;4.35;;
35324;SDS011;35135;47.510;19.036;2023-05-23T05:14:51;7.80;;;5.30;;
35324;SDS011;35135;47.510;19.036;2023-05-23T05:17:17;6.53;;;5.43;;
35324;SDS011;35135;47.510;19.036;2023-05-23T05:19:44;7.80;;;4.80;;
35324;SDS011;35135;47.510;19.036;2023-05-23T05:22:10;7.00;;;5.20;;
35324;SDS011;35135;47.510;19.036;2023-05-23T05:24:36;7.80;;;5.22;;
35324;SDS011;35135;47.510;19.036;2023-05-23T05:27:02;7.97;;;4.70;;
35324;SDS011;35135;47.510;19.036;2023-05-23T05:29:27;6.15;;;4.63;;
35324;SDS011;35135;47.510;19.036;2023-05-23T05:31:53;7.20;;;5.00;;
35324;SDS011;35135;47.510;19.036;2023-05-23T05:34:19;7.78;;;5.20;;
35324;SDS011;35135;47.510;19.036;2023-05-23T05:36:45;6.88;;;5.20;;
35324;SDS011;35135;47.510;19.036;2023-05-23T05:39:12;9.32;;;4.97;;
35324;SDS011;35135;47.510;19.036;2023-05-23T05:41:38;7.00;;;5.00;;
35324;SDS011;35135;47.510;19.036;2023-05-23T05:44:07;7.53;;;4.95;;
35324;SDS011;35135;47.510;19.036;2023-05-23T05:46:33;18.13;;;5.88;;
35324;SDS011;35135;47.510;19.036;2023-05-23T05:48:59;9.63;;;5.40;;
35324;SDS011;35135;47.510;19.036;2023-05-23T05:51:25;8.32;;;4.43;;
35324;SDS011;35135;47.510;19.036;2023-05-23T05:53:50;10.65;;;4.32;;
35324;SDS011;35135;47.510;19.036;2023-05-23T05:56:16;9.45;;;4.90;;
35324;SDS011;35135;47.510;19.036;2023-05-23T05:58:42;8.90;;;4.63;;
35324;SDS011;35135;47.510;19.036;2023-05-23T06:01:07;7.65;;;4.38;;
35324;SDS011;35135;47.510;19.036;2023-05-23T06:03:33;7.03;;;3.92;;
35324;SDS011;35135;47.510;19.036;2023-05-23T06:05:59;8.43;;;4.00;;
35324;SDS011;35135;47.510;19.036;2023-05-23T06:08:25;7.05;;;4.18;;
35324;SDS011;35135;47.510;19.036;2023-05-23T06:10:50;8.35;;;4.28;;
35324;SDS011;35135;47.510;19.036;2023-05-23T06:13:16;7.95;;;4.35;;
35324;SDS011;35135;47.510;19.036;2023-05-23T06:15:42;7.38;;;4.40;;
35324;SDS011;35135;47.510;19.036;2023-05-23T06:18:08;12.82;;;4.45;;
35324;SDS011;35135;47.510;19.036;2023-05-23T06:20:34;9.77;;;4.88;;
35324;SDS011;35135;47.510;19.036;2023-05-23T06:22:59;15.82;;;5.95;;
35324;SDS011;35135;47.510;19.036;2023-05-23T06:25:26;12.63;;;4.68;;
35324;SDS011;35135;47.510;19.036;2023-05-23T06:27:51;15.65;;;4.60;;
35324;SDS011;35135;47.510;19.036;2023-05-23T06:30:17;10.10;;;4.72;;
35324;SDS011;35135;47.510;19.036;2023-05-23T06:32:43;6.22;;;4.47;;
35324;SDS011;35135;47.510;19.036;2023-05-23T06:35:08;7.05;;;4.28;;
35324;SDS011;35135;47.510;19.036;2023-05-23T06:37:34;6.65;;;4.50;;
35324;SDS011;35135;47.510;19.036;2023-05-23T06:40:00;9.20;;;4.35;;
35324;SDS011;35135;47.510;19.036;2023-05-23T06:42:26;8.02;;;4.80;;
35324;SDS011;35135;47.510;19.036;2023-05-23T06:44:51;9.38;;;4.82;;
35324;SDS011;35135;47.510;19.036;2023-05-23T06:47:17;7.65;;;4.65;;
35324;SDS011;35135;47.510;19.036;2023-05-23T06:49:43;7.82;;;4.72;;
35324;SDS011;35135;47.510;19.036;2023-05-23T06:52:09;7.30;;;4.80;;
35324;SDS011;35135;47.510;19.036;2023-05-23T06:54:35;6.90;;;4.55;;
35324;SDS011;35135;47.510;19.036;2023-05-23T06:57:00;6.13;;;4.88;;
35324;SDS011;35135;47.510;19.036;2023-05-23T06:59:29;7.65;;;5.18;;
35324;SDS011;35135;47.510;19.036;2023-05-23T07:01:54;7.10;;;4.78;;
35324;SDS011;35135;47.510;19.036;2023-05-23T07:04:20;8.68;;;4.90;;
35324;SDS011;35135;47.510;19.036;2023-05-23T07:06:46;6.18;;;4.50;;
35324;SDS011;35135;47.510;19.036;2023-05-23T07:09:11;7.70;;;5.18;;
35324;SDS011;35135;47.510;19.036;2023-05-23T07:11:37;8.80;;;5.10;;
35324;SDS011;35135;47.510;19.036;2023-05-23T07:14:05;6.28;;;4.57;;
35324;SDS011;35135;47.510;19.036;2023-05-23T07:16:31;7.55;;;5.28;;
35324;SDS011;35135;47.510;19.036;2023-05-23T07:18:57;7.75;;;5.80;;
35324;SDS011;35135;47.510;19.036;2023-05-23T07:21:23;8.52;;;4.90;;
35324;SDS011;35135;47.510;19.036;2023-05-23T07:23:48;6.43;;;4.80;;
35324;SDS011;35135;47.510;19.036;2023-05-23T07:26:14;9.25;;;5.35;;
35324;SDS011;35135;47.510;19.036;2023-05-23T07:28:40;8.27;;;4.93;;
35324;SDS011;35135;47.510;19.036;2023-05-23T07:31:05;8.05;;;5.78;;
35324;SDS011;35135;47.510;19.036;2023-05-23T07:33:33;8.55;;;5.60;;
35324;SDS011;35135;47.510;19.036;2023-05-23T07:35:59;8.70;;;5.18;;
35324;SDS011;35135;47.510;19.036;2023-05-23T07:38:25;9.60;;;5.10;;
35324;SDS011;35135;47.510;19.036;2023-05-23T07:40:50;8.23;;;5.35;;
35324;SDS011;35135;47.510;19.036;2023-05-23T07:43:16;7.22;;;5.03;;
35324;SDS011;35135;47.510;19.036;2023-05-23T07:45:42;7.60;;;4.78;;
35324;SDS011;35135;47.510;19.036;2023-05-23T07:48:07;7.28;;;5.18;;
35324;SDS011;35135;47.510;19.036;2023-05-23T07:50:33;8.25;;;5.13;;
35324;SDS011;35135;47.510;19.036;2023-05-23T07:52:59;5.75;;;4.90;;
35324;SDS011;35135;47.510;19.036;2023-05-23T07:55:25;7.95;;;5.05;;
35324;SDS011;35135;47.510;19.036;2023-05-23T07:57:50;6.65;;;5.10;;
35324;SDS011;35135;47.510;19.036;2023-05-23T08:00:19;7.55;;;4.70;;
35324;SDS011;35135;47.510;19.036;2023-05-23T08:02:45;10.80;;;5.75;;
35324;SDS011;35135;47.510;19.036;2023-05-23T08:05:10;7.03;;;4.78;;
35324;SDS011;35135;47.510;19.036;2023-05-23T08:07:36;7.13;;;5.05;;
35324;SDS011;35135;47.510;19.036;2023-05-23T08:10:01;7.93;;;4.80;;
35324;SDS011;35135;47.510;19.036;2023-05-23T08:12:27;6.72;;;4.65;;
35324;SDS011;35135;47.510;19.036;2023-05-23T08:14:53;7.68;;;4.93;;
35324;SDS011;35135;47.510;19.036;2023-05-23T08:17:18;10.52;;;5.35;;
35324;SDS011;35135;47.510;19.036;2023-05-23T08:19:44;7.85;;;5.28;;
35324;SDS011;35135;47.510;19.036;2023-05-23T08:22:10;9.20;;;4.88;;
35324;SDS011;35135;47.510;19.036;2023-05-23T08:24:36;7.93;;;4.80;;
35324;SDS011;35135;47.510;19.036;2023-05-23T08:27:02;9.73;;;4.57;;
35324;SDS011;35135;47.510;19.036;2023-05-23T08:29:27;6.45;;;4.63;;
35324;SDS011;35135;47.510;19.036;2023-05-23T08:31:53;7.28;;;4.75;;
35324;SDS011;35135;47.510;19.036;2023-05-23T08:34:19;5.90;;;4.88;;
35324;SDS011;35135;47.510;19.036;2023-05-23T08:36:44;7.78;;;5.47;;
35324;SDS011;35135;47.510;19.036;2023-05-23T08:39:10;8.57;;;5.50;;
35324;SDS011;35135;47.510;19.036;2023-05-23T08:41:36;8.60;;;5.60;;
35324;SDS011;35135;47.510;19.036;2023-05-23T08:44:01;7.45;;;5.40;;
35324;SDS011;35135;47.510;19.036;2023-05-23T08:46:27;7.40;;;4.72;;
35324;SDS011;35135;47.510;19.036;2023-05-23T08:48:54;7.38;;;5.15;;
35324;SDS011;35135;47.510;19.036;2023-05-23T08:51:20;8.18;;;5.00;;
35324;SDS011;35135;47.510;19.036;2023-05-23T08:53:47;7.72;;;5.25;;
35324;SDS011;35135;47.510;19.036;2023-05-23T08:56:14;7.78;;;4.63;;
35324;SDS011;35135;47.510;19.036;2023-05-23T08:58:41;9.82;;;5.30;;
35324;SDS011;35135;47.510;19.036;2023-05-23T09:01:10;7.78;;;5.43;;
35324;SDS011;35135;47.510;19.036;2023-05-23T09:03:37;6.93;;;5.03;;
35324;SDS011;35135;47.510;19.036;2023-05-23T09:06:06;7.55;;;5.30;;
35324;SDS011;35135;47.510;19.036;2023-05-23T09:08:33;6.13;;;5.50;;
35324;SDS011;35135;47.510;19.036;2023-05-23T09:11:00;7.78;;;5.30;;
35324;SDS011;35135;47.510;19.036;2023-05-23T09:13:30;6.35;;;4.95;;
35324;SDS011;35135;47.510;19.036;2023-05-23T09:16:03;6.78;;;5.30;;
35324;SDS011;35135;47.510;19.036;2023-05-23T09:18:35;7.97;;;5.05;;
35324;SDS011;35135;47.510;19.036;2023-05-23T09:21:02;6.63;;;5.15;;
35324;SDS011;35135;47.510;19.036;2023-05-23T09:23:30;8.52;;;5.93;;
35324;SDS011;35135;47.510;19.036;2023-05-23T09:25:56;8.05;;;5.03;;
35324;SDS011;35135;47.510;19.036;2023-05-23T09:28:25;7.47;;;4.72;;
35324;SDS011;35135;47.510;19.036;2023-05-23T09:30:56;6.90;;;5.45;;
35324;SDS011;35135;47.510;19.036;2023-05-23T09:36:17;6.00;;;4.93;;
35324;SDS011;35135;47.510;19.036;2023-05-23T09:38:44;6.72;;;5.05;;
35324;SDS011;35135;47.510;19.036;2023-05-23T09:41:11;6.28;;;5.32;;
35324;SDS011;35135;47.510;19.036;2023-05-23T09:43:38;6.60;;;5.38;;
35324;SDS011;35135;47.510;19.036;2023-05-23T09:46:11;7.15;;;5.25;;
35324;SDS011;35135;47.510;19.036;2023-05-23T09:48:37;5.90;;;5.30;;
35324;SDS011;35135;47.510;19.036;2023-05-23T09:51:07;6.45;;;4.93;;
35324;SDS011;35135;47.510;19.036;2023-05-23T09:53:34;5.90;;;5.30;;
35324;SDS011;35135;47.510;19.036;2023-05-23T09:56:00;6.88;;;5.63;;
35324;SDS011;35135;47.510;19.036;2023-05-23T09:58:27;7.35;;;4.95;;
35324;SDS011;35135;47.510;19.036;2023-05-23T10:00:56;5.85;;;5.25;;
35324;SDS011;35135;47.510;19.036;2023-05-23T10:03:34;5.72;;;4.80;;
35324;SDS011;35135;47.510;19.036;2023-05-23T10:06:13;7.30;;;5.28;;
35324;SDS011;35135;47.510;19.036;2023-05-23T10:08:54;8.98;;;5.47;;
35324;SDS011;35135;47.510;19.036;2023-05-23T10:13:58;5.57;;;5.07;;
35324;SDS011;35135;47.510;19.036;2023-05-23T10:16:28;5.72;;;4.95;;
35324;SDS011;35135;47.510;19.036;2023-05-23T10:21:59;7.60;;;4.97;;
35324;SDS011;35135;47.510;19.036;2023-05-23T10:24:27;9.00;;;5.80;;
35324;SDS011;35135;47.510;19.036;2023-05-23T10:26:53;7.50;;;5.18;;
35324;SDS011;35135;47.510;19.036;2023-05-23T10:29:20;7.50;;;5.10;;
35324;SDS011;35135;47.510;19.036;2023-05-23T10:31:47;6.13;;;4.60;;
35324;SDS011;35135;47.510;19.036;2023-05-23T10:34:16;8.13;;;5.30;;
35324;SDS011;35135;47.510;19.036;2023-05-23T10:36:53;6.90;;;5.47;;
35324;SDS011;35135;47.510;19.036;2023-05-23T10:40:15;6.43;;;5.22;;
35324;SDS011;35135;47.510;19.036;2023-05-23T10:45:16;5.60;;;5.10;;
35324;SDS011;35135;47.510;19.036;2023-05-23T10:47:45;6.10;;;5.45;;
35324;SDS011;35135;47.510;19.036;2023-05-23T10:50:13;6.47;;;4.93;;
35324;SDS011;35135;47.510;19.036;2023-05-23T10:52:41;6.60;;;5.55;;
35324;SDS011;35135;47.510;19.036;2023-05-23T10:55:14;6.57;;;5.47;;
35324;SDS011;35135;47.510;19.036;2023-05-23T10:57:42;6.53;;;5.35;;
35324;SDS011;35135;47.510;19.036;2023-05-23T11:00:12;8.25;;;5.80;;
35324;SDS011;35135;47.510;19.036;2023-05-23T11:03:00;6.47;;;5.40;;
35324;SDS011;35135;47.510;19.036;2023-05-23T11:05:32;6.82;;;5.05;;
35324;SDS011;35135;47.510;19.036;2023-05-23T11:08:10;5.55;;;4.90;;
35324;SDS011;35135;47.510;19.036;2023-05-23T11:10:54;7.15;;;5.38;;
35324;SDS011;35135;47.510;19.036;2023-05-23T11:13:25;7.90;;;5.43;;
35324;SDS011;35135;47.510;19.036;2023-05-23T11:21:56;6.28;;;5.68;;
35324;SDS011;35135;47.510;19.036;2023-05-23T11:24:46;8.00;;;6.13;;
35324;SDS011;35135;47.510;19.036;2023-05-23T11:27:26;5.95;;;5.35;;
35324;SDS011;35135;47.510;19.036;2023-05-23T11:29:56;5.88;;;5.25;;
35324;SDS011;35135;47.510;19.036;2023-05-23T11:32:28;6.82;;;5.38;;
35324;SDS011;35135;47.510;19.036;2023-05-23T11:34:57;6.60;;;5.80;;
35324;SDS011;35135;47.510;19.036;2023-05-23T11:37:28;5.97;;;5.20;;
35324;SDS011;35135;47.510;19.036;2023-05-23T11:39:54;6.65;;;5.63;;
35324;SDS011;35135;47.510;19.036;2023-05-23T11:42:21;5.80;;;5.30;;
35324;SDS011;35135;47.510;19.036;2023-05-23T11:44:50;8.45;;;5.85;;
35324;SDS011;35135;47.510;19.036;2023-05-23T11:47:16;6.60;;;5.80;;
35324;SDS011;35135;47.510;19.036;2023-05-23T11:49:43;5.53;;;4.93;;
35324;SDS011;35135;47.510;19.036;2023-05-23T11:52:11;6.20;;;5.60;;
35324;SDS011;35135;47.510;19.036;2023-05-23T11:54:40;7.40;;;5.70;;
35324;SDS011;35135;47.510;19.036;2023-05-23T11:57:07;5.93;;;5.43;;
35324;SDS011;35135;47.510;19.036;2023-05-23T11:59:33;8.40;;;6.18;;
35324;SDS011;35135;47.510;19.036;2023-05-23T12:02:00;6.95;;;5.47;;
35324;SDS011;35135;47.510;19.036;2023-05-23T12:04:27;8.75;;;5.43;;
35324;SDS011;35135;47.510;19.036;2023-05-23T12:06:53;6.30;;;5.68;;
35324;SDS011;35135;47.510;19.036;2023-05-23T12:09:19;6.85;;;5.88;;
35324;SDS011;35135;47.510;19.036;2023-05-23T12:11:45;6.63;;;5.57;;
35324;SDS011;35135;47.510;19.036;2023-05-23T12:14:13;5.95;;;5.20;;
35324;SDS011;35135;47.510;19.036;2023-05-23T12:16:41;6.30;;;5.68;;
35324;SDS011;35135;47.510;19.036;2023-05-23T12:19:09;6.45;;;5.80;;
35324;SDS011;35135;47.510;19.036;2023-05-23T12:21:45;7.47;;;5.20;;
35324;SDS011;35135;47.510;19.036;2023-05-23T12:24:13;5.88;;;5.38;;
35324;SDS011;35135;47.510;19.036;2023-05-23T12:26:48;7.20;;;5.85;;
35324;SDS011;35135;47.510;19.036;2023-05-23T12:29:16;7.82;;;5.85;;
35324;SDS011;35135;47.510;19.036;2023-05-23T12:31:43;6.78;;;5.57;;
35324;SDS011;35135;47.510;19.036;2023-05-23T12:34:10;6.72;;;5.05;;
35324;SDS011;35135;47.510;19.036;2023-05-23T12:36:37;8.38;;;5.22;;
35324;SDS011;35135;47.510;19.036;2023-05-23T12:39:04;8.02;;;5.75;;
35324;SDS011;35135;47.510;19.036;2023-05-23T12:41:31;7.38;;;5.80;;
35324;SDS011;35135;47.510;19.036;2023-05-23T12:43:58;7.15;;;5.80;;
35324;SDS011;35135;47.510;19.036;2023-05-23T12:46:24;7.53;;;5.40;;
35324;SDS011;35135;47.510;19.036;2023-05-23T12:48:51;5.80;;;5.07;;
35324;SDS011;35135;47.510;19.036;2023-05-23T12:51:17;6.15;;;5.53;;
35324;SDS011;35135;47.510;19.036;2023-05-23T12:53:44;6.22;;;5.07;;
35324;SDS011;35135;47.510;19.036;2023-05-23T12:56:10;6.15;;;5.30;;
35324;SDS011;35135;47.510;19.036;2023-05-23T12:58:35;6.82;;;5.47;;
35324;SDS011;35135;47.510;19.036;2023-05-23T13:01:01;7.55;;;5.35;;
35324;SDS011;35135;47.510;19.036;2023-05-23T13:03:28;7.93;;;5.72;;
35324;SDS011;35135;47.510;19.036;2023-05-23T13:05:56;6.07;;;5.30;;
35324;SDS011;35135;47.510;19.036;2023-05-23T13:08:23;5.25;;;4.75;;
35324;SDS011;35135;47.510;19.036;2023-05-23T13:10:49;6.88;;;4.43;;
35324;SDS011;35135;47.510;19.036;2023-05-23T13:13:17;6.97;;;5.18;;
35324;SDS011;35135;47.510;19.036;2023-05-23T13:15:42;5.40;;;4.70;;
35324;SDS011;35135;47.510;19.036;2023-05-23T13:18:08;9.45;;;5.80;;
35324;SDS011;35135;47.510;19.036;2023-05-23T13:20:33;5.95;;;5.38;;
35324;SDS011;35135;47.510;19.036;2023-05-23T13:22:59;5.38;;;4.88;;
35324;SDS011;35135;47.510;19.036;2023-05-23T13:25:25;5.75;;;5.20;;
35324;SDS011;35135;47.510;19.036;2023-05-23T13:27:51;6.40;;;4.90;;
35324;SDS011;35135;47.510;19.036;2023-05-23T13:30:18;7.97;;;5.22;;
35324;SDS011;35135;47.510;19.036;2023-05-23T13:32:44;5.22;;;4.65;;
35324;SDS011;35135;47.510;19.036;2023-05-23T13:35:10;5.53;;;5.03;;
35324;SDS011;35135;47.510;19.036;2023-05-23T13:37:36;6.60;;;5.05;;
35324;SDS011;35135;47.510;19.036;2023-05-23T13:40:02;7.47;;;4.78;;
35324;SDS011;35135;47.510;19.036;2023-05-23T13:42:29;6.40;;;4.53;;
35324;SDS011;35135;47.510;19.036;2023-05-23T13:44:55;6.20;;;5.03;;
35324;SDS011;35135;47.510;19.036;2023-05-23T13:47:21;6.57;;;5.05;;
35324;SDS011;35135;47.510;19.036;2023-05-23T13:49:46;8.40;;;4.82;;
35324;SDS011;35135;47.510;19.036;2023-05-23T13:52:12;5.25;;;4.75;;
35324;SDS011;35135;47.510;19.036;2023-05-23T13:54:38;8.05;;;4.93;;
35324;SDS011;35135;47.510;19.036;2023-05-23T13:57:04;5.10;;;4.60;;
35324;SDS011;35135;47.510;19.036;2023-05-23T13:59:30;6.13;;;4.90;;
35324;SDS011;35135;47.510;19.036;2023-05-23T14:01:56;5.88;;;4.78;;
35324;SDS011;35135;47.510;19.036;2023-05-23T14:04:22;6.15;;;4.85;;
35324;SDS011;35135;47.510;19.036;2023-05-23T14:06:48;5.43;;;4.90;;
35324;SDS011;35135;47.510;19.036;2023-05-23T14:09:14;6.30;;;5.20;;
35324;SDS011;35135;47.510;19.036;2023-05-23T14:11:39;7.03;;;4.68;;
35324;SDS011;35135;47.510;19.036;2023-05-23T14:14:05;6.15;;;4.43;;
35324;SDS011;35135;47.510;19.036;2023-05-23T14:16:31;5.32;;;4.65;;
35324;SDS011;35135;47.510;19.036;2023-05-23T14:18:57;9.40;;;4.43;;
35324;SDS011;35135;47.510;19.036;2023-05-23T14:21:22;6.68;;;4.47;;
35324;SDS011;35135;47.510;19.036;2023-05-23T14:23:48;7.18;;;4.10;;
35324;SDS011;35135;47.510;19.036;2023-05-23T14:26:14;4.65;;;4.25;;
35324;SDS011;35135;47.510;19.036;2023-05-23T14:28:40;7.18;;;3.95;;
35324;SDS011;35135;47.510;19.036;2023-05-23T14:31:05;4.72;;;4.30;;
35324;SDS011;35135;47.510;19.036;2023-05-23T14:33:31;5.50;;;4.47;;
35324;SDS011;35135;47.510;19.036;2023-05-23T14:35:57;5.07;;;4.20;;
35324;SDS011;35135;47.510;19.036;2023-05-23T14:38:23;4.88;;;3.95;;
35324;SDS011;35135;47.510;19.036;2023-05-23T14:40:48;5.68;;;4.55;;
35324;SDS011;35135;47.510;19.036;2023-05-23T14:43:14;4.25;;;3.85;;
35324;SDS011;35135;47.510;19.036;2023-05-23T14:45:41;4.72;;;3.75;;
35324;SDS011;35135;47.510;19.036;2023-05-23T14:48:08;5.03;;;4.05;;
35324;SDS011;35135;47.510;19.036;2023-05-23T14:50:34;5.50;;;3.92;;
35324;SDS011;35135;47.510;19.036;2023-05-23T14:53:00;5.35;;;3.72;;